sensor_id;sensor_type;location;lat;lon;timestamp;pressure;altitude;pressure_sealevel;temperature;humidity
71764;BME280;59602;52.142;5.408;2023-05-24T00:02:19;102594.91;;;10.84;71.25
71764;BME280;59602;52.142;5.408;2023-05-24T00:04:46;102599.44;;;10.80;71.38
71764;BME280;59602;52.142;5.408;2023-05-24T00:07:14;102593.53;;;10.78;71.14
71764;BME280;59602;52.142;5.408;2023-05-24T00:09:41;102597.94;;;10.70;71.17
71764;BME280;59602;52.142;5.408;2023-05-24T00:12:08;102592.84;;;10.69;71.35
71764;BME280;59602;52.142;5.408;2023-05-24T00:14:35;102598.63;;;10.67;71.77
71764;BME280;59602;52.142;5.408;2023-05-24T00:17:02;102589.66;;;10.67;71.36
71764;BME280;59602;52.142;5.408;2023-05-24T00:19:29;102595.00;;;10.63;71.52
71764;BME280;59602;52.142;5.408;2023-05-24T00:21:56;102594.53;;;10.61;71.53
71764;BME280;59602;52.142;5.408;2023-05-24T00:24:22;102594.84;;;10.59;71.71
71764;BME280;59602;52.142;5.408;2023-05-24T00:26:49;102592.13;;;10.59;71.86
71764;BME280;59602;52.142;5.408;2023-05-24T00:29:16;102586.25;;;10.57;72.07
71764;BME280;59602;52.142;5.408;2023-05-24T00:31:42;102585.78;;;10.55;72.29
71764;BME280;59602;52.142;5.408;2023-05-24T00:34:09;102591.44;;;10.50;72.48
71764;BME280;59602;52.142;5.408;2023-05-24T00:36:35;102582.81;;;10.48;72.77
71764;BME280;59602;52.142;5.408;2023-05-24T00:39:03;102582.34;;;10.46;72.61
71764;BME280;59602;52.142;5.408;2023-05-24T00:41:30;102574.88;;;10.43;72.79
71764;BME280;59602;52.142;5.408;2023-05-24T00:43:56;102572.16;;;10.43;73.08
71764;BME280;59602;52.142;5.408;2023-05-24T00:46:27;102574.88;;;10.43;73.22
71764;BME280;59602;52.142;5.408;2023-05-24T00:48:55;102567.63;;;10.47;73.28
71764;BME280;59602;52.142;5.408;2023-05-24T00:51:23;102573.53;;;10.49;72.58
71764;BME280;59602;52.142;5.408;2023-05-24T00:53:53;102565.25;;;10.46;72.59
71764;BME280;59602;52.142;5.408;2023-05-24T00:56:20;102566.72;;;10.43;73.32
71764;BME280;59602;52.142;5.408;2023-05-24T00:58:47;102567.03;;;10.42;73.40
71764;BME280;59602;52.142;5.408;2023-05-24T01:01:15;102562.75;;;10.41;74.01
71764;BME280;59602;52.142;5.408;2023-05-24T01:03:42;102559.69;;;10.42;73.63
71764;BME280;59602;52.142;5.408;2023-05-24T01:06:12;102568.66;;;10.43;73.81
71764;BME280;59602;52.142;5.408;2023-05-24T01:11:16;102562.75;;;10.41;73.57
71764;BME280;59602;52.142;5.408;2023-05-24T01:13:51;102568.97;;;10.41;73.68
71764;BME280;59602;52.142;5.408;2023-05-24T01:16:23;102566.59;;;10.39;74.38
71764;BME280;59602;52.142;5.408;2023-05-24T01:18:56;102565.78;;;10.39;74.08
71764;BME280;59602;52.142;5.408;2023-05-24T01:21:41;102569.75;;;10.42;73.95
71764;BME280;59602;52.142;5.408;2023-05-24T01:24:29;102568.28;;;10.44;73.88
71764;BME280;59602;52.142;5.408;2023-05-24T01:27:04;102574.09;;;10.43;73.65
71764;BME280;59602;52.142;5.408;2023-05-24T01:29:33;102572.81;;;10.40;73.76
71764;BME280;59602;52.142;5.408;2023-05-24T01:32:01;102564.72;;;10.31;73.91
71764;BME280;59602;52.142;5.408;2023-05-24T01:34:28;102566.00;;;10.34;74.52
71764;BME280;59602;52.142;5.408;2023-05-24T01:36:55;102564.19;;;10.38;74.47
71764;BME280;59602;52.142;5.408;2023-05-24T01:39:25;102570.09;;;10.40;74.62
71764;BME280;59602;52.142;5.408;2023-05-24T01:44:28;102566.03;;;10.46;74.77
71764;BME280;59602;52.142;5.408;2023-05-24T01:47:03;102569.22;;;10.48;74.58
71764;BME280;59602;52.142;5.408;2023-05-24T01:49:37;102567.75;;;10.51;74.74
71764;BME280;59602;52.142;5.408;2023-05-24T01:52:11;102564.56;;;10.49;74.56
71764;BME280;59602;52.142;5.408;2023-05-24T01:54:42;102564.56;;;10.49;74.85
71764;BME280;59602;52.142;5.408;2023-05-24T01:57:10;102565.38;;;10.49;74.92
71764;BME280;59602;52.142;5.408;2023-05-24T01:59:41;102560.72;;;10.50;74.57
71764;BME280;59602;52.142;5.408;2023-05-24T02:02:10;102558.81;;;10.50;74.95
71764;BME280;59602;52.142;5.408;2023-05-24T02:04:37;102560.59;;;10.46;75.03
71764;BME280;59602;52.142;5.408;2023-05-24T02:07:04;102560.59;;;10.46;75.36
71764;BME280;59602;52.142;5.408;2023-05-24T02:09:31;102567.41;;;10.52;75.39
71764;BME280;59602;52.142;5.408;2023-05-24T02:11:58;102564.38;;;10.54;75.26
71764;BME280;59602;52.142;5.408;2023-05-24T02:14:25;102563.22;;;10.55;75.21
71764;BME280;59602;52.142;5.408;2023-05-24T02:16:51;102566.28;;;10.53;75.20
71764;BME280;59602;52.142;5.408;2023-05-24T02:19:18;102562.31;;;10.51;75.41
71764;BME280;59602;52.142;5.408;2023-05-24T02:21:45;102552.91;;;10.48;75.29
71764;BME280;59602;52.142;5.408;2023-05-24T02:24:11;102560.59;;;10.46;74.85
71764;BME280;59602;52.142;5.408;2023-05-24T02:26:38;102546.53;;;10.44;75.25
71764;BME280;59602;52.142;5.408;2023-05-24T02:29:05;102547.31;;;10.45;74.75
71764;BME280;59602;52.142;5.408;2023-05-24T02:31:32;102549.63;;;10.43;75.19
71764;BME280;59602;52.142;5.408;2023-05-24T02:33:59;102551.50;;;10.42;75.05
71764;BME280;59602;52.142;5.408;2023-05-24T02:36:26;102549.94;;;10.41;75.38
71764;BME280;59602;52.142;5.408;2023-05-24T02:38:52;102553.31;;;10.38;75.26
71764;BME280;59602;52.142;5.408;2023-05-24T02:41:19;102558.31;;;10.36;75.74
71764;BME280;59602;52.142;5.408;2023-05-24T02:43:46;102554.00;;;10.35;75.52
71764;BME280;59602;52.142;5.408;2023-05-24T02:46:13;102554.69;;;10.32;75.57
71764;BME280;59602;52.142;5.408;2023-05-24T02:48:40;102556.56;;;10.31;75.97
71764;BME280;59602;52.142;5.408;2023-05-24T02:51:07;102561.69;;;10.33;75.67
71764;BME280;59602;52.142;5.408;2023-05-24T02:53:33;102557.03;;;10.33;75.83
71764;BME280;59602;52.142;5.408;2023-05-24T02:56:00;102557.50;;;10.35;76.01
71764;BME280;59602;52.142;5.408;2023-05-24T02:58:26;102563.75;;;10.36;75.75
71764;BME280;59602;52.142;5.408;2023-05-24T03:00:54;102563.63;;;10.32;76.13
71764;BME280;59602;52.142;5.408;2023-05-24T03:03:21;102574.81;;;10.31;76.40
71764;BME280;59602;52.142;5.408;2023-05-24T03:05:49;102573.25;;;10.30;75.99
71764;BME280;59602;52.142;5.408;2023-05-24T03:08:15;102563.00;;;10.27;75.85
71764;BME280;59602;52.142;5.408;2023-05-24T03:10:42;102570.34;;;10.26;76.24
71764;BME280;59602;52.142;5.408;2023-05-24T03:13:10;102567.97;;;10.25;76.25
71764;BME280;59602;52.142;5.408;2023-05-24T03:15:36;102566.38;;;10.24;76.56
71764;BME280;59602;52.142;5.408;2023-05-24T03:18:03;102562.28;;;10.17;76.52
71764;BME280;59602;52.142;5.408;2023-05-24T03:20:30;102567.25;;;10.15;76.67
71764;BME280;59602;52.142;5.408;2023-05-24T03:22:57;102559.09;;;10.15;76.61
71764;BME280;59602;52.142;5.408;2023-05-24T03:25:24;102551.41;;;10.17;76.88
71764;BME280;59602;52.142;5.408;2023-05-24T03:27:52;102543.72;;;10.19;76.62
71764;BME280;59602;52.142;5.408;2023-05-24T03:30:19;102548.03;;;10.21;76.80
71764;BME280;59602;52.142;5.408;2023-05-24T03:32:45;102545.31;;;10.21;76.79
71764;BME280;59602;52.142;5.408;2023-05-24T03:35:12;102536.34;;;10.20;76.94
71764;BME280;59602;52.142;5.408;2023-05-24T03:37:39;102539.41;;;10.18;76.86
71764;BME280;59602;52.142;5.408;2023-05-24T03:40:06;102535.78;;;10.14;77.32
71764;BME280;59602;52.142;5.408;2023-05-24T03:42:33;102539.28;;;10.15;76.99
71764;BME280;59602;52.142;5.408;2023-05-24T03:44:59;102551.41;;;10.17;77.22
71764;BME280;59602;52.142;5.408;2023-05-24T03:47:26;102540.53;;;10.17;77.24
71764;BME280;59602;52.142;5.408;2023-05-24T03:49:52;102539.88;;;10.21;77.31
71764;BME280;59602;52.142;5.408;2023-05-24T03:52:19;102546.44;;;10.19;77.52
71764;BME280;59602;52.142;5.408;2023-05-24T03:54:46;102545.31;;;10.21;77.41
71764;BME280;59602;52.142;5.408;2023-05-24T03:57:12;102539.19;;;10.24;77.64
71764;BME280;59602;52.142;5.408;2023-05-24T03:59:39;102543.63;;;10.28;77.54
71764;BME280;59602;52.142;5.408;2023-05-24T04:02:06;102547.31;;;10.32;77.74
71764;BME280;59602;52.142;5.408;2023-05-24T04:04:33;102544.72;;;10.36;77.49
71764;BME280;59602;52.142;5.408;2023-05-24T04:07:02;102546.75;;;10.39;77.47
71764;BME280;59602;52.142;5.408;2023-05-24T04:09:28;102544.50;;;10.41;77.70
71764;BME280;59602;52.142;5.408;2023-05-24T04:11:55;102548.00;;;10.42;77.31
71764;BME280;59602;52.142;5.408;2023-05-24T04:14:23;102549.94;;;10.41;77.62
71764;BME280;59602;52.142;5.408;2023-05-24T04:16:49;102542.09;;;10.39;77.34
71764;BME280;59602;52.142;5.408;2023-05-24T04:19:18;102539.38;;;10.39;77.84
71764;BME280;59602;52.142;5.408;2023-05-24T04:21:44;102539.53;;;10.43;77.91
71764;BME280;59602;52.142;5.408;2023-05-24T04:24:11;102541.88;;;10.45;77.80
71764;BME280;59602;52.142;5.408;2023-05-24T04:26:38;102541.56;;;10.46;77.91
71764;BME280;59602;52.142;5.408;2023-05-24T04:29:04;102542.16;;;10.52;78.09
71764;BME280;59602;52.142;5.408;2023-05-24T04:31:33;102543.72;;;10.53;77.69
71764;BME280;59602;52.142;5.408;2023-05-24T04:34:00;102544.50;;;10.53;77.94
71764;BME280;59602;52.142;5.408;2023-05-24T04:36:28;102549.16;;;10.53;77.78
71764;BME280;59602;52.142;5.408;2023-05-24T04:38:56;102543.41;;;10.54;77.91
71764;BME280;59602;52.142;5.408;2023-05-24T04:41:28;102546.22;;;10.58;78.32
71764;BME280;59602;52.142;5.408;2023-05-24T04:43:57;102551.94;;;10.65;78.00
71764;BME280;59602;52.142;5.408;2023-05-24T04:46:25;102547.84;;;10.71;78.21
71764;BME280;59602;52.142;5.408;2023-05-24T04:48:53;102547.28;;;10.78;78.11
71764;BME280;59602;52.142;5.408;2023-05-24T04:51:21;102551.25;;;10.80;78.38
71764;BME280;59602;52.142;5.408;2023-05-24T04:53:47;102545.25;;;10.87;78.68
71764;BME280;59602;52.142;5.408;2023-05-24T04:56:14;102545.97;;;10.96;78.66
71764;BME280;59602;52.142;5.408;2023-05-24T04:58:42;102556.59;;;11.01;78.43
71764;BME280;59602;52.142;5.408;2023-05-24T05:01:09;102554.00;;;11.05;78.40
71764;BME280;59602;52.142;5.408;2023-05-24T05:03:37;102549.81;;;11.08;78.22
71764;BME280;59602;52.142;5.408;2023-05-24T05:06:05;102549.56;;;11.13;78.44
71764;BME280;59602;52.142;5.408;2023-05-24T05:08:32;102553.66;;;11.19;78.25
71764;BME280;59602;52.142;5.408;2023-05-24T05:10:59;102544.09;;;11.25;78.13
71764;BME280;59602;52.142;5.408;2023-05-24T05:13:26;102552.06;;;11.30;78.44
71764;BME280;59602;52.142;5.408;2023-05-24T05:15:53;102555.34;;;11.36;78.20
71764;BME280;59602;52.142;5.408;2023-05-24T05:18:19;102555.47;;;11.39;77.99
71764;BME280;59602;52.142;5.408;2023-05-24T05:20:46;102563.84;;;11.47;78.21
71764;BME280;59602;52.142;5.408;2023-05-24T05:23:13;102559.63;;;11.49;77.49
71764;BME280;59602;52.142;5.408;2023-05-24T05:25:39;102557.13;;;11.56;77.89
71764;BME280;59602;52.142;5.408;2023-05-24T05:28:06;102558.47;;;11.62;77.05
71764;BME280;59602;52.142;5.408;2023-05-24T05:30:33;102557.88;;;11.69;76.98
71764;BME280;59602;52.142;5.408;2023-05-24T05:32:59;102556.84;;;11.74;76.96
71764;BME280;59602;52.142;5.408;2023-05-24T05:35:26;102562.88;;;11.79;76.78
71764;BME280;59602;52.142;5.408;2023-05-24T05:37:53;102570.78;;;11.84;76.50
71764;BME280;59602;52.142;5.408;2023-05-24T05:40:20;102570.25;;;11.91;76.41
71764;BME280;59602;52.142;5.408;2023-05-24T05:42:46;102568.53;;;11.99;75.70
71764;BME280;59602;52.142;5.408;2023-05-24T05:45:16;102567.91;;;12.05;75.65
71764;BME280;59602;52.142;5.408;2023-05-24T05:47:44;102566.91;;;12.10;75.63
71764;BME280;59602;52.142;5.408;2023-05-24T05:50:11;102563.66;;;12.20;75.44
71764;BME280;59602;52.142;5.408;2023-05-24T05:52:37;102570.75;;;12.37;75.50
71764;BME280;59602;52.142;5.408;2023-05-24T05:55:04;102570.78;;;12.53;74.52
71764;BME280;59602;52.142;5.408;2023-05-24T05:57:31;102580.09;;;12.68;74.23
71764;BME280;59602;52.142;5.408;2023-05-24T05:59:58;102576.97;;;12.82;74.00
71764;BME280;59602;52.142;5.408;2023-05-24T06:02:24;102570.28;;;12.95;72.99
71764;BME280;59602;52.142;5.408;2023-05-24T06:04:51;102566.31;;;13.08;72.42
71764;BME280;59602;52.142;5.408;2023-05-24T06:07:18;102566.13;;;13.17;71.67
71764;BME280;59602;52.142;5.408;2023-05-24T06:09:45;102567.06;;;13.25;71.80
71764;BME280;59602;52.142;5.408;2023-05-24T06:12:11;102562.22;;;13.34;71.47
71764;BME280;59602;52.142;5.408;2023-05-24T06:14:38;102570.22;;;13.43;70.61
71764;BME280;59602;52.142;5.408;2023-05-24T06:17:05;102568.88;;;13.53;70.32
71764;BME280;59602;52.142;5.408;2023-05-24T06:19:32;102566.38;;;13.63;69.53
71764;BME280;59602;52.142;5.408;2023-05-24T06:21:58;102570.41;;;13.69;69.15
71764;BME280;59602;52.142;5.408;2023-05-24T06:24:25;102579.94;;;13.76;68.54
71764;BME280;59602;52.142;5.408;2023-05-24T06:26:53;102582.88;;;13.86;68.67
71764;BME280;59602;52.142;5.408;2023-05-24T06:29:20;102580.00;;;13.99;67.62
71764;BME280;59602;52.142;5.408;2023-05-24T06:31:48;102580.28;;;14.13;67.17
71764;BME280;59602;52.142;5.408;2023-05-24T06:34:15;102587.13;;;14.23;66.91
71764;BME280;59602;52.142;5.408;2023-05-24T06:36:43;102590.84;;;14.34;66.67
71764;BME280;59602;52.142;5.408;2023-05-24T06:39:13;102592.50;;;14.39;66.22
71764;BME280;59602;52.142;5.408;2023-05-24T06:41:40;102592.16;;;14.40;65.43
71764;BME280;59602;52.142;5.408;2023-05-24T06:44:08;102591.34;;;14.59;66.23
71764;BME280;59602;52.142;5.408;2023-05-24T06:46:35;102592.44;;;14.78;66.00
71764;BME280;59602;52.142;5.408;2023-05-24T06:49:01;102589.88;;;14.88;66.10
71764;BME280;59602;52.142;5.408;2023-05-24T06:51:29;102593.16;;;14.98;64.28
71764;BME280;59602;52.142;5.408;2023-05-24T06:53:56;102593.53;;;14.96;63.84
71764;BME280;59602;52.142;5.408;2023-05-24T06:56:22;102597.25;;;14.84;64.14
71764;BME280;59602;52.142;5.408;2023-05-24T06:58:49;102591.03;;;14.64;64.78
71764;BME280;59602;52.142;5.408;2023-05-24T07:01:16;102594.94;;;14.44;65.00
71764;BME280;59602;52.142;5.408;2023-05-24T07:03:43;102593.34;;;14.62;64.98
71764;BME280;59602;52.142;5.408;2023-05-24T07:06:10;102596.81;;;14.59;65.00
71764;BME280;59602;52.142;5.408;2023-05-24T07:08:40;102603.28;;;14.51;64.83
71764;BME280;59602;52.142;5.408;2023-05-24T07:11:07;102598.09;;;14.46;64.92
71764;BME280;59602;52.142;5.408;2023-05-24T07:13:34;102610.00;;;14.53;63.98
71764;BME280;59602;52.142;5.408;2023-05-24T07:16:01;102596.22;;;14.50;63.91
71764;BME280;59602;52.142;5.408;2023-05-24T07:18:29;102607.41;;;14.41;64.47
71764;BME280;59602;52.142;5.408;2023-05-24T07:20:55;102597.97;;;14.39;64.44
71764;BME280;59602;52.142;5.408;2023-05-24T07:23:22;102606.19;;;14.39;63.96
71764;BME280;59602;52.142;5.408;2023-05-24T07:25:48;102601.38;;;14.32;64.32
71764;BME280;59602;52.142;5.408;2023-05-24T07:28:17;102598.06;;;14.23;64.98
71764;BME280;59602;52.142;5.408;2023-05-24T07:30:45;102598.41;;;14.21;64.74
71764;BME280;59602;52.142;5.408;2023-05-24T07:33:12;102599.94;;;14.19;65.43
71764;BME280;59602;52.142;5.408;2023-05-24T07:35:39;102598.13;;;14.26;65.13
71764;BME280;59602;52.142;5.408;2023-05-24T07:38:06;102603.88;;;14.60;65.00
71764;BME280;59602;52.142;5.408;2023-05-24T07:40:35;102597.59;;;15.06;65.09
71764;BME280;59602;52.142;5.408;2023-05-24T07:43:02;102600.13;;;15.18;63.76
71764;BME280;59602;52.142;5.408;2023-05-24T07:45:29;102606.88;;;15.24;63.93
71764;BME280;59602;52.142;5.408;2023-05-24T07:47:57;102604.75;;;15.37;62.26
71764;BME280;59602;52.142;5.408;2023-05-24T07:50:23;102605.38;;;15.53;62.35
71764;BME280;59602;52.142;5.408;2023-05-24T07:52:50;102602.91;;;15.71;61.15
71764;BME280;59602;52.142;5.408;2023-05-24T07:55:17;102600.03;;;15.91;59.98
71764;BME280;59602;52.142;5.408;2023-05-24T07:57:44;102597.59;;;15.86;60.10
71764;BME280;59602;52.142;5.408;2023-05-24T08:00:11;102605.19;;;15.69;59.73
71764;BME280;59602;52.142;5.408;2023-05-24T08:02:41;102604.50;;;15.49;59.75
71764;BME280;59602;52.142;5.408;2023-05-24T08:05:11;102600.72;;;15.31;60.20
71764;BME280;59602;52.142;5.408;2023-05-24T08:07:38;102606.31;;;15.11;61.08
71764;BME280;59602;52.142;5.408;2023-05-24T08:10:07;102603.75;;;14.99;61.35
71764;BME280;59602;52.142;5.408;2023-05-24T08:12:37;102603.75;;;14.99;61.99
71764;BME280;59602;52.142;5.408;2023-05-24T08:15:04;102605.75;;;15.02;61.73
71764;BME280;59602;52.142;5.408;2023-05-24T08:17:34;102613.44;;;15.16;61.67
71764;BME280;59602;52.142;5.408;2023-05-24T08:20:01;102606.31;;;15.38;60.66
71764;BME280;59602;52.142;5.408;2023-05-24T08:22:31;102603.78;;;15.52;60.14
71764;BME280;59602;52.142;5.408;2023-05-24T08:25:01;102593.44;;;15.69;60.25
71764;BME280;59602;52.142;5.408;2023-05-24T08:27:29;102604.25;;;15.85;59.55
71764;BME280;59602;52.142;5.408;2023-05-24T08:30:22;102600.84;;;15.95;60.29
71764;BME280;59602;52.142;5.408;2023-05-24T08:32:49;102589.84;;;15.91;59.22
71764;BME280;59602;52.142;5.408;2023-05-24T08:35:17;102599.25;;;15.94;58.89
71764;BME280;59602;52.142;5.408;2023-05-24T08:37:47;102603.25;;;15.70;58.16
71764;BME280;59602;52.142;5.408;2023-05-24T08:40:14;102592.91;;;15.60;58.11
71764;BME280;59602;52.142;5.408;2023-05-24T08:42:41;102595.34;;;15.65;58.37
71764;BME280;59602;52.142;5.408;2023-05-24T08:45:11;102579.91;;;15.80;58.39
71764;BME280;59602;52.142;5.408;2023-05-24T08:47:38;102585.84;;;15.85;56.96
71764;BME280;59602;52.142;5.408;2023-05-24T08:50:06;102597.09;;;15.76;57.69
71764;BME280;59602;52.142;5.408;2023-05-24T08:52:34;102591.97;;;15.75;57.77
71764;BME280;59602;52.142;5.408;2023-05-24T08:55:03;102594.22;;;15.69;58.90
71764;BME280;59602;52.142;5.408;2023-05-24T08:57:31;102589.34;;;15.55;58.84
71764;BME280;59602;52.142;5.408;2023-05-24T09:00:00;102590.13;;;15.56;59.13
71764;BME280;59602;52.142;5.408;2023-05-24T09:02:27;102590.50;;;15.81;58.90
71764;BME280;59602;52.142;5.408;2023-05-24T09:04:55;102590.94;;;15.87;58.70
71764;BME280;59602;52.142;5.408;2023-05-24T09:07:22;102584.41;;;15.95;56.87
71764;BME280;59602;52.142;5.408;2023-05-24T09:09:57;102595.44;;;15.98;56.50
71764;BME280;59602;52.142;5.408;2023-05-24T09:12:25;102585.31;;;16.06;56.60
71764;BME280;59602;52.142;5.408;2023-05-24T09:15:04;102581.56;;;16.22;56.37
71764;BME280;59602;52.142;5.408;2023-05-24T09:17:33;102593.19;;;16.11;56.04
71764;BME280;59602;52.142;5.408;2023-05-24T09:20:00;102598.91;;;15.95;56.15
71764;BME280;59602;52.142;5.408;2023-05-24T09:22:27;102603.13;;;15.89;56.14
71764;BME280;59602;52.142;5.408;2023-05-24T09:24:59;102600.53;;;16.00;56.52
71764;BME280;59602;52.142;5.408;2023-05-24T09:27:26;102600.31;;;16.16;54.89
71764;BME280;59602;52.142;5.408;2023-05-24T09:29:54;102600.81;;;16.25;54.39
71764;BME280;59602;52.142;5.408;2023-05-24T09:32:22;102594.59;;;16.28;53.29
71764;BME280;59602;52.142;5.408;2023-05-24T09:34:51;102598.47;;;16.27;54.04
71764;BME280;59602;52.142;5.408;2023-05-24T09:37:21;102600.31;;;16.16;55.28
71764;BME280;59602;52.142;5.408;2023-05-24T09:39:56;102603.88;;;16.16;56.82
71764;BME280;59602;52.142;5.408;2023-05-24T09:42:24;102598.78;;;16.18;55.69
71764;BME280;59602;52.142;5.408;2023-05-24T09:45:04;102593.69;;;16.21;55.65
71764;BME280;59602;52.142;5.408;2023-05-24T09:47:35;102589.75;;;16.18;55.96
71764;BME280;59602;52.142;5.408;2023-05-24T09:50:04;102595.16;;;16.11;55.60
71764;BME280;59602;52.142;5.408;2023-05-24T09:52:35;102599.38;;;16.01;55.81
71764;BME280;59602;52.142;5.408;2023-05-24T09:55:14;102608.19;;;15.87;55.92
71764;BME280;59602;52.142;5.408;2023-05-24T09:57:43;102597.59;;;15.86;57.22
71764;BME280;59602;52.142;5.408;2023-05-24T10:00:11;102595.50;;;16.06;56.07
71764;BME280;59602;52.142;5.408;2023-05-24T10:02:59;102602.34;;;16.23;55.06
71764;BME280;59602;52.142;5.408;2023-05-24T10:05:26;102595.28;;;16.22;56.10
71764;BME280;59602;52.142;5.408;2023-05-24T10:07:54;102603.81;;;16.13;55.18
71764;BME280;59602;52.142;5.408;2023-05-24T10:10:22;102605.28;;;16.03;55.18
71764;BME280;59602;52.142;5.408;2023-05-24T10:12:51;102606.78;;;16.01;55.50
71764;BME280;59602;52.142;5.408;2023-05-24T10:15:19;102610.22;;;15.90;55.60
71764;BME280;59602;52.142;5.408;2023-05-24T10:17:46;102605.97;;;15.96;54.70
71764;BME280;59602;52.142;5.408;2023-05-24T10:20:13;102608.53;;;16.16;54.30
71764;BME280;59602;52.142;5.408;2023-05-24T10:22:43;102603.25;;;16.34;54.09
71764;BME280;59602;52.142;5.408;2023-05-24T10:25:16;102597.50;;;16.46;52.72
71764;BME280;59602;52.142;5.408;2023-05-24T10:27:48;102600.19;;;16.39;53.45
71764;BME280;59602;52.142;5.408;2023-05-24T10:30:25;102612.19;;;16.27;52.51
71764;BME280;59602;52.142;5.408;2023-05-24T10:32:54;102601.97;;;16.24;52.15
71764;BME280;59602;52.142;5.408;2023-05-24T10:35:23;102599.66;;;16.26;53.09
71764;BME280;59602;52.142;5.408;2023-05-24T10:37:50;102599.97;;;16.58;52.09
71764;BME280;59602;52.142;5.408;2023-05-24T10:40:19;102602.09;;;16.72;51.33
71764;BME280;59602;52.142;5.408;2023-05-24T10:42:47;102602.00;;;16.65;52.49
71764;BME280;59602;52.142;5.408;2023-05-24T10:47:50;102594.94;;;16.68;51.95
71764;BME280;59602;52.142;5.408;2023-05-24T10:50:18;102596.50;;;16.62;52.41
71764;BME280;59602;52.142;5.408;2023-05-24T10:52:45;102592.44;;;16.89;52.10
71764;BME280;59602;52.142;5.408;2023-05-24T10:55:14;102596.69;;;17.31;52.13
71764;BME280;59602;52.142;5.408;2023-05-24T10:57:41;102586.78;;;17.19;50.37
71764;BME280;59602;52.142;5.408;2023-05-24T11:03:31;102600.28;;;16.87;50.51
71764;BME280;59602;52.142;5.408;2023-05-24T11:09:26;102595.91;;;17.31;49.87
71764;BME280;59602;52.142;5.408;2023-05-24T11:11:55;102589.69;;;17.45;50.43
71764;BME280;59602;52.142;5.408;2023-05-24T11:14:25;102589.72;;;17.52;48.51
71764;BME280;59602;52.142;5.408;2023-05-24T11:16:53;102590.00;;;17.32;48.91
71764;BME280;59602;52.142;5.408;2023-05-24T11:19:22;102596.53;;;17.10;49.47
71764;BME280;59602;52.142;5.408;2023-05-24T11:21:50;102588.13;;;16.92;49.34
71764;BME280;59602;52.142;5.408;2023-05-24T11:24:19;102582.63;;;16.92;50.07
71764;BME280;59602;52.142;5.408;2023-05-24T11:26:48;102590.56;;;16.97;49.65
71764;BME280;59602;52.142;5.408;2023-05-24T11:29:15;102596.84;;;17.01;49.28
71764;BME280;59602;52.142;5.408;2023-05-24T11:31:48;102592.44;;;16.86;50.46
71764;BME280;59602;52.142;5.408;2023-05-24T11:34:15;102585.81;;;16.94;50.24
71764;BME280;59602;52.142;5.408;2023-05-24T11:36:43;102593.22;;;16.90;50.95
71764;BME280;59602;52.142;5.408;2023-05-24T11:39:12;102592.50;;;16.96;50.67
71764;BME280;59602;52.142;5.408;2023-05-24T11:41:39;102584.69;;;17.06;50.91
71764;BME280;59602;52.142;5.408;2023-05-24T11:44:07;102586.34;;;17.10;50.56
71764;BME280;59602;52.142;5.408;2023-05-24T11:46:35;102583.63;;;17.17;51.50
71764;BME280;59602;52.142;5.408;2023-05-24T11:49:02;102586.47;;;17.28;50.57
71764;BME280;59602;52.142;5.408;2023-05-24T11:51:31;102601.78;;;17.29;50.81
71764;BME280;59602;52.142;5.408;2023-05-24T11:53:58;102597.75;;;17.16;51.05
71764;BME280;59602;52.142;5.408;2023-05-24T11:56:28;102592.00;;;17.35;51.61
71764;BME280;59602;52.142;5.408;2023-05-24T11:59:13;102593.69;;;17.61;50.70
71764;BME280;59602;52.142;5.408;2023-05-24T12:01:40;102589.03;;;17.69;48.96
71764;BME280;59602;52.142;5.408;2023-05-24T12:04:07;102582.34;;;17.67;49.55
71764;BME280;59602;52.142;5.408;2023-05-24T12:06:38;102589.41;;;17.64;49.92
71764;BME280;59602;52.142;5.408;2023-05-24T12:09:07;102580.03;;;17.76;50.38
71764;BME280;59602;52.142;5.408;2023-05-24T12:11:37;102590.25;;;17.75;50.02
71764;BME280;59602;52.142;5.408;2023-05-24T12:14:05;102584.38;;;17.80;49.54
71764;BME280;59602;52.142;5.408;2023-05-24T12:16:32;102582.47;;;17.92;48.41
71764;BME280;59602;52.142;5.408;2023-05-24T12:19:01;102583.28;;;17.96;49.06
71764;BME280;59602;52.142;5.408;2023-05-24T12:21:40;102582.09;;;17.97;49.15
71764;BME280;59602;52.142;5.408;2023-05-24T12:24:09;102586.00;;;17.89;50.97
71764;BME280;59602;52.142;5.408;2023-05-24T12:26:40;102580.94;;;18.05;49.54
71764;BME280;59602;52.142;5.408;2023-05-24T12:29:09;102571.59;;;18.45;49.11
71764;BME280;59602;52.142;5.408;2023-05-24T12:31:39;102577.53;;;18.73;47.89
71764;BME280;59602;52.142;5.408;2023-05-24T12:34:10;102581.06;;;18.44;47.70
71764;BME280;59602;52.142;5.408;2023-05-24T12:36:38;102578.69;;;18.46;47.38
71764;BME280;59602;52.142;5.408;2023-05-24T12:39:17;102579.88;;;18.63;47.22
71764;BME280;59602;52.142;5.408;2023-05-24T12:45:12;102570.44;;;18.46;48.32
71764;BME280;59602;52.142;5.408;2023-05-24T12:47:39;102584.19;;;18.43;48.80
71764;BME280;59602;52.142;5.408;2023-05-24T12:50:06;102579.06;;;18.38;49.10
71764;BME280;59602;52.142;5.408;2023-05-24T12:52:33;102581.78;;;18.23;48.61
71764;BME280;59602;52.142;5.408;2023-05-24T12:55:00;102578.25;;;18.16;49.76
71764;BME280;59602;52.142;5.408;2023-05-24T12:57:27;102578.63;;;18.14;48.42
71764;BME280;59602;52.142;5.408;2023-05-24T12:59:54;102576.63;;;18.08;50.27
71764;BME280;59602;52.142;5.408;2023-05-24T13:02:21;102582.59;;;18.28;48.08
71764;BME280;59602;52.142;5.408;2023-05-24T13:04:49;102590.84;;;18.28;48.14
71764;BME280;59602;52.142;5.408;2023-05-24T13:07:16;102586.16;;;18.39;49.09
71764;BME280;59602;52.142;5.408;2023-05-24T13:09:43;102583.81;;;18.48;46.91
71764;BME280;59602;52.142;5.408;2023-05-24T13:12:09;102586.94;;;18.39;47.81
71764;BME280;59602;52.142;5.408;2023-05-24T13:14:36;102587.72;;;18.29;47.81